Time;durP1;ratioP1;P1;durP2;ratioP2;P2;SDS_P1;SDS_P2;PMS_P1;PMS_P2;Temp;Humidity;BMP_temperature;BMP_pressure;BME280_temperature;BME280_humidity;BME280_pressure;Samples;Min_cycle;Max_cycle;Signal;HPM_P1;HPM_P2
2022/11/16 00:03:46;;;;;;;11.38;8.23;;;6.70;99.90;;;;;;3574805;23;20050;-83
2022/11/16 00:06:13;;;;;;;12.93;8.68;;;6.70;99.90;;;;;;4992525;28;20026;-82
2022/11/16 00:11:33;;;;;;;12.40;7.70;;;6.70;99.90;;;;;;4997384;28;20122;-83
2022/11/16 00:13:58;;;;;;;15.50;8.35;;;6.80;99.90;;;;;;5001528;28;20468;-83
2022/11/16 00:16:24;;;;;;;11.88;7.75;;;6.80;99.90;;;;;;4987427;28;20037;-83
2022/11/16 00:18:55;;;;;;;12.38;7.88;;;6.90;99.90;;;;;;5003206;28;20514;-83
2022/11/16 00:21:21;;;;;;;11.68;7.63;;;6.90;99.90;;;;;;4984780;28;20040;-83
2022/11/16 00:23:46;;;;;;;13.77;7.35;;;6.90;99.90;;;;;;5003183;28;20449;-84
2022/11/16 00:26:12;;;;;;;11.88;7.97;;;6.90;99.90;;;;;;5001868;28;20453;-83
2022/11/16 00:28:38;;;;;;;11.75;7.53;;;6.90;99.90;;;;;;4999897;28;20030;-84
2022/11/16 00:31:05;;;;;;;11.57;7.70;;;7.00;99.90;;;;;;4988402;28;20479;-83
2022/11/16 00:33:31;;;;;;;13.32;7.53;;;7.00;99.90;;;;;;4981613;28;20034;-83
2022/11/16 00:36:00;;;;;;;12.13;7.55;;;7.00;99.90;;;;;;5002589;28;20036;-83
2022/11/16 00:38:25;;;;;;;12.40;6.70;;;7.00;99.90;;;;;;4990104;28;20490;-83
2022/11/16 00:40:51;;;;;;;11.05;7.57;;;6.90;99.90;;;;;;5006132;28;20065;-83
2022/11/16 00:43:17;;;;;;;14.30;7.63;;;6.90;99.90;;;;;;5006428;28;20025;-84
2022/11/16 00:45:43;;;;;;;11.10;7.70;;;6.90;99.90;;;;;;5009259;28;20076;-83
2022/11/16 00:48:09;;;;;;;13.98;7.55;;;6.90;99.90;;;;;;5004892;28;20030;-84
2022/11/16 00:50:35;;;;;;;11.70;7.22;;;6.90;99.90;;;;;;4993646;28;20493;-84
2022/11/16 00:53:01;;;;;;;12.40;7.88;;;7.00;99.90;;;;;;4997501;28;20037;-83
2022/11/16 00:55:26;;;;;;;12.82;7.80;;;7.00;99.90;;;;;;5001204;28;20026;-83
2022/11/16 00:57:52;;;;;;;13.73;7.75;;;7.00;99.90;;;;;;5006538;28;20092;-83
2022/11/16 01:00:18;;;;;;;11.85;7.18;;;7.00;99.90;;;;;;5002227;28;20033;-83
2022/11/16 01:02:43;;;;;;;8.55;6.93;;;7.00;99.90;;;;;;4985927;28;20100;-84
2022/11/16 01:05:09;;;;;;;12.52;7.47;;;7.00;99.90;;;;;;4986869;28;20847;-82
2022/11/16 01:07:36;;;;;;;11.48;7.50;;;7.00;99.90;;;;;;5005197;28;20678;-83
2022/11/16 01:10:05;;;;;;;9.02;6.72;;;7.10;99.90;;;;;;5004937;28;20026;-83
2022/11/16 01:12:30;;;;;;;;;;;7.00;99.90;;;;;;5003365;28;20050;-84
2022/11/16 01:14:56;;;;;;;12.45;6.90;;;6.80;99.90;;;;;;4999920;28;19983;-83
2022/11/16 01:17:22;;;;;;;9.07;7.05;;;6.90;99.90;;;;;;4990366;28;20453;-83
2022/11/16 01:19:47;;;;;;;9.30;6.57;;;6.80;99.90;;;;;;5003716;28;20057;-82
2022/11/16 01:22:13;;;;;;;10.85;7.28;;;6.80;99.90;;;;;;5001872;28;20144;-83
2022/11/16 01:24:39;;;;;;;8.38;6.07;;;6.80;99.90;;;;;;5005332;28;20116;-83
2022/11/16 01:27:04;;;;;;;10.52;7.00;;;6.80;99.90;;;;;;4986697;28;20120;-83
2022/11/16 01:29:30;;;;;;;9.15;7.07;;;6.80;99.90;;;;;;5002996;28;20046;-83
2022/11/16 01:31:56;;;;;;;9.88;6.18;;;6.80;99.90;;;;;;4999384;28;20046;-83
2022/11/16 01:34:23;;;;;;;7.70;5.95;;;6.90;99.90;;;;;;5004923;28;20041;-84
2022/11/16 01:36:48;;;;;;;8.98;6.40;;;6.80;99.90;;;;;;5001872;28;20057;-84
2022/11/16 01:39:15;;;;;;;9.95;6.65;;;6.80;99.90;;;;;;4987691;28;20112;-84
2022/11/16 01:41:42;;;;;;;9.80;6.95;;;6.80;99.90;;;;;;4984770;28;20037;-83
2022/11/16 01:44:14;;;;;;;9.18;6.90;;;6.90;99.90;;;;;;5000662;28;20149;-85
2022/11/16 01:46:40;;;;;;;10.80;6.35;;;6.90;99.90;;;;;;5002757;28;20482;-84
2022/11/16 01:49:12;;;;;;;9.60;6.35;;;6.80;99.90;;;;;;4984672;28;20526;-84
2022/11/16 01:51:40;;;;;;;10.52;7.38;;;6.80;99.90;;;;;;5001920;28;20038;-84
2022/11/16 01:54:07;;;;;;;;;;;6.80;99.90;;;;;;5005758;28;20037;-84
2022/11/16 01:56:35;;;;;;;10.70;6.38;;;6.80;99.90;;;;;;5000485;28;19897;-84
2022/11/16 01:59:01;;;;;;;9.10;6.55;;;6.80;99.90;;;;;;5002279;28;20049;-84
2022/11/16 02:01:26;;;;;;;7.85;5.60;;;6.80;99.90;;;;;;4988046;28;20038;-84
2022/11/16 02:03:52;;;;;;;9.45;5.65;;;6.80;99.90;;;;;;5006061;28;20137;-84
2022/11/16 02:06:31;;;;;;;8.63;6.07;;;6.70;99.90;;;;;;5008256;28;20033;-84
2022/11/16 02:12:16;;;;;;;10.25;7.28;;;6.70;99.90;;;;;;5012920;28;20053;-83
2022/11/16 02:15:00;;;;;;;10.60;6.57;;;6.80;99.90;;;;;;5013364;28;20033;-83
2022/11/16 02:18:03;;;;;;;8.48;6.38;;;6.80;99.90;;;;;;4994008;28;20069;-83
2022/11/16 02:20:59;;;;;;;8.32;6.55;;;6.80;99.90;;;;;;5014610;28;20057;-84
2022/11/16 02:23:49;;;;;;;9.18;6.75;;;6.80;99.90;;;;;;5008502;28;20048;-84
2022/11/16 02:26:42;;;;;;;10.25;6.10;;;6.90;99.90;;;;;;5014412;28;20033;-83
2022/11/16 02:29:40;;;;;;;11.23;6.93;;;6.90;99.90;;;;;;4995500;28;20037;-84
2022/11/16 02:32:41;;;;;;;7.45;6.18;;;7.00;99.90;;;;;;5012039;28;20115;-85
2022/11/16 02:35:10;;;;;;;10.30;5.90;;;7.00;99.90;;;;;;4997466;28;20046;-84
2022/11/16 02:37:41;;;;;;;3.55;2.88;;;6.90;99.90;;;;;;5013580;28;20034;-84
2022/11/16 02:40:11;;;;;;;9.05;6.82;;;6.70;99.90;;;;;;5011094;28;20180;-84
2022/11/16 02:42:50;;;;;;;8.98;6.20;;;6.70;99.90;;;;;;5012158;28;20486;-84
2022/11/16 02:45:22;;;;;;;8.52;5.95;;;6.80;99.90;;;;;;5011882;28;20038;-84
2022/11/16 02:47:53;;;;;;;9.98;6.22;;;6.80;99.90;;;;;;5011505;28;20423;-84
2022/11/16 02:50:22;;;;;;;8.05;6.70;;;6.70;99.90;;;;;;4997871;28;20042;-83
2022/11/16 02:52:48;;;;;;;8.98;5.60;;;6.80;99.90;;;;;;5010597;28;20072;-84
2022/11/16 02:55:14;;;;;;;10.05;6.18;;;6.80;99.90;;;;;;5009858;28;20064;-84
2022/11/16 02:57:59;;;;;;;11.18;5.93;;;6.80;99.90;;;;;;4995358;28;20030;-84
2022/11/16 03:00:42;;;;;;;11.18;6.40;;;6.80;99.90;;;;;;5013092;28;20038;-84
2022/11/16 03:03:22;;;;;;;9.05;6.88;;;6.80;99.90;;;;;;5016783;28;20140;-83
2022/11/16 03:05:52;;;;;;;9.40;6.25;;;6.80;99.90;;;;;;5026999;28;20048;-84
2022/11/16 03:08:32;;;;;;;9.73;5.82;;;6.80;99.90;;;;;;5029439;28;20128;-84
2022/11/16 03:14:13;;;;;;;10.90;6.57;;;6.80;99.90;;;;;;5032029;28;20075;-84
2022/11/16 03:16:43;;;;;;;7.20;6.30;;;6.80;99.90;;;;;;5033062;28;20033;-84
2022/11/16 03:19:13;;;;;;;8.43;6.15;;;6.80;99.90;;;;;;5016016;28;20069;-84
2022/11/16 03:21:42;;;;;;;11.32;6.88;;;6.80;99.90;;;;;;5019366;28;20037;-84
2022/11/16 03:24:08;;;;;;;11.68;6.55;;;6.80;99.90;;;;;;5026583;28;21322;-84
2022/11/16 03:26:58;;;;;;;6.55;4.30;;;6.80;99.90;;;;;;5032561;28;20029;-84
2022/11/16 03:29:48;;;;;;;8.60;5.38;;;6.70;99.90;;;;;;5032663;28;20038;-84
2022/11/16 03:32:27;;;;;;;3.88;3.38;;;6.60;99.90;;;;;;5027481;28;20069;-84
2022/11/16 03:34:59;;;;;;;9.13;6.15;;;6.50;99.90;;;;;;5032694;28;20477;-84
2022/11/16 03:37:25;;;;;;;8.50;4.65;;;6.50;99.90;;;;;;5026732;28;20550;-84
2022/11/16 03:39:52;;;;;;;7.13;5.38;;;6.50;99.90;;;;;;5030461;28;20099;-84
2022/11/16 03:42:20;;;;;;;10.17;6.50;;;6.50;99.90;;;;;;5033733;28;20532;-84
2022/11/16 03:44:48;;;;;;;9.70;6.53;;;6.60;99.90;;;;;;5022267;28;20307;-85
2022/11/16 03:47:14;;;;;;;10.38;7.20;;;6.70;99.90;;;;;;5013557;28;20050;-85
2022/11/16 03:49:46;;;;;;;7.32;5.95;;;6.70;99.90;;;;;;5011877;28;20044;-85
2022/11/16 03:52:14;;;;;;;12.45;6.65;;;6.80;99.90;;;;;;5033389;28;20118;-85
2022/11/16 03:54:39;;;;;;;9.80;5.78;;;6.80;99.90;;;;;;5029360;28;20041;-84
2022/11/16 03:57:05;;;;;;;8.57;6.15;;;6.80;99.90;;;;;;5015467;28;20436;-85
2022/11/16 03:59:31;;;;;;;9.27;6.32;;;6.80;99.90;;;;;;5028393;28;20147;-85
2022/11/16 04:01:56;;;;;;;11.35;6.72;;;6.90;99.90;;;;;;5028205;28;20046;-84
2022/11/16 04:28:11;;;;;;;9.23;5.43;;;7.10;99.90;;;;;;5025795;28;20440;-81
2022/11/16 04:29:10;;;;;;;10.02;6.05;;;7.10;99.90;;;;;;5031643;28;20036;-81
2022/11/16 04:39:48;;;;;;;8.73;5.43;;;7.10;99.90;;;;;;5033839;28;20039;-83
2022/11/16 04:42:16;;;;;;;8.35;5.47;;;7.10;99.90;;;;;;5031518;28;20042;-86
2022/11/16 04:47:26;;;;;;;8.48;6.28;;;7.10;99.90;;;;;;5033097;28;20040;-88
2022/11/16 04:49:51;;;;;;;9.93;6.10;;;7.20;99.90;;;;;;5038200;28;20608;-89
2022/11/16 04:52:17;;;;;;;10.32;6.53;;;7.10;99.90;;;;;;5020514;28;20044;-90
2022/11/16 04:54:42;;;;;;;11.82;6.25;;;7.20;99.90;;;;;;5028451;28;20026;-90
2022/11/16 04:57:08;;;;;;;10.35;6.28;;;7.20;99.90;;;;;;5035962;28;20034;-90
2022/11/16 04:59:33;;;;;;;10.30;6.13;;;7.20;99.90;;;;;;5035349;28;20029;-91
2022/11/16 05:02:08;;;;;;;7.65;5.22;;;7.20;99.90;;;;;;5041067;28;20203;-90
2022/11/16 05:04:39;;;;;;;9.02;6.40;;;7.20;99.90;;;;;;5031832;28;20063;-88
2022/11/16 05:07:09;;;;;;;8.20;6.47;;;7.20;99.90;;;;;;5012994;28;20054;-90
2022/11/16 05:09:43;;;;;;;8.75;6.40;;;7.20;99.90;;;;;;5031801;28;20062;-91
2022/11/16 05:12:10;;;;;;;11.57;7.13;;;7.30;99.90;;;;;;5015665;28;20050;-91
2022/11/16 05:14:36;;;;;;;11.30;8.05;;;7.30;99.90;;;;;;5026751;28;20050;-91
2022/11/16 05:17:02;;;;;;;8.30;7.38;;;7.30;99.90;;;;;;5016068;28;20025;-92
2022/11/16 05:22:12;;;;;;;10.93;7.55;;;7.30;99.90;;;;;;5015722;28;20044;-91
2022/11/16 05:24:37;;;;;;;9.15;6.97;;;7.30;99.90;;;;;;5014003;28;20054;-91
2022/11/16 05:27:09;;;;;;;9.90;6.63;;;7.30;99.90;;;;;;5018739;28;20049;-90
2022/11/16 05:29:35;;;;;;;11.55;6.72;;;7.20;99.90;;;;;;5020869;28;20073;-89
2022/11/16 05:32:02;;;;;;;10.73;6.05;;;7.20;99.90;;;;;;5033440;28;20050;-89
2022/11/16 05:34:28;;;;;;;9.77;6.32;;;7.20;99.90;;;;;;5019274;28;20041;-88
2022/11/16 05:36:54;;;;;;;9.52;7.22;;;7.20;99.90;;;;;;5022190;28;20026;-89
2022/11/16 05:39:20;;;;;;;9.85;6.22;;;7.30;99.90;;;;;;5036092;28;20030;-88
2022/11/16 05:41:47;;;;;;;10.32;6.65;;;7.30;99.90;;;;;;5017606;28;20034;-89
2022/11/16 05:44:14;;;;;;;11.23;6.78;;;7.30;99.90;;;;;;5020571;28;20033;-89
2022/11/16 05:46:40;;;;;;;9.65;6.28;;;7.20;99.90;;;;;;5017685;28;20111;-87
2022/11/16 05:49:08;;;;;;;9.30;6.47;;;7.20;99.90;;;;;;5017621;28;20042;-89
2022/11/16 05:51:35;;;;;;;8.77;6.13;;;7.30;99.90;;;;;;5018661;28;20038;-88
2022/11/16 05:54:02;;;;;;;8.32;6.40;;;7.30;99.90;;;;;;5016895;28;20030;-88
2022/11/16 05:56:28;;;;;;;10.60;7.05;;;7.30;99.90;;;;;;5012805;28;20057;-89
2022/11/16 05:58:54;;;;;;;11.50;7.30;;;7.30;99.90;;;;;;5020947;28;20022;-88
2022/11/16 06:01:19;;;;;;;7.13;6.07;;;7.20;99.90;;;;;;5009374;28;20387;-85
2022/11/16 06:03:45;;;;;;;10.63;6.57;;;7.30;99.90;;;;;;5021793;28;20061;-87
2022/11/16 06:06:11;;;;;;;9.93;6.90;;;7.30;99.90;;;;;;5035489;28;20087;-87
2022/11/16 06:08:36;;;;;;;9.30;5.50;;;7.40;99.90;;;;;;5019443;28;20482;-87
2022/11/16 06:11:04;;;;;;;8.52;5.45;;;7.40;99.90;;;;;;5036472;28;20041;-88
2022/11/16 06:13:31;;;;;;;12.00;6.70;;;7.40;99.90;;;;;;5038033;28;20071;-88
2022/11/16 06:15:57;;;;;;;19.40;10.43;;;7.40;99.90;;;;;;5033506;28;20037;-88
2022/11/16 06:18:23;;;;;;;9.13;6.25;;;7.40;99.90;;;;;;5018147;28;20037;-88
2022/11/16 06:20:49;;;;;;;11.25;7.30;;;7.40;99.90;;;;;;5035673;28;20044;-88
2022/11/16 06:23:14;;;;;;;10.85;6.30;;;7.40;99.90;;;;;;4951968;23;20053;-28
2022/11/16 06:25:40;;;;;;;10.82;6.55;;;7.40;99.90;;;;;;5024460;28;20167;-28
2022/11/16 06:28:06;;;;;;;9.43;6.95;;;7.40;99.90;;;;;;5027718;28;20092;-28
2022/11/16 06:30:32;;;;;;;12.48;7.03;;;7.50;99.90;;;;;;5026204;28;20025;-28
2022/11/16 06:32:57;;;;;;;8.15;6.55;;;7.50;99.90;;;;;;5023379;28;20038;-28
2022/11/16 06:35:23;;;;;;;9.98;6.55;;;7.50;99.90;;;;;;5026081;28;20030;-28
2022/11/16 06:37:49;;;;;;;12.98;6.45;;;7.50;99.90;;;;;;5026261;28;20490;-28
2022/11/16 06:40:14;;;;;;;9.50;6.68;;;7.50;99.90;;;;;;5026895;28;20022;-28
2022/11/16 06:42:40;;;;;;;9.60;7.10;;;7.50;99.90;;;;;;5026196;28;20552;-27
2022/11/16 06:45:06;;;;;;;8.48;6.15;;;7.40;99.90;;;;;;5026792;28;20032;-31
2022/11/16 06:47:33;;;;;;;11.48;5.90;;;7.50;99.90;;;;;;5025973;28;20139;-28
2022/11/16 06:49:59;;;;;;;11.20;6.18;;;7.50;99.90;;;;;;5011415;28;20525;-27
2022/11/16 06:52:25;;;;;;;8.55;6.25;;;7.50;99.90;;;;;;5024158;28;20116;-29
2022/11/16 06:54:50;;;;;;;8.10;6.28;;;7.60;99.90;;;;;;5027906;28;20014;-28
2022/11/16 06:57:16;;;;;;;14.00;6.32;;;7.60;99.90;;;;;;5026836;28;20025;-27
2022/11/16 06:59:42;;;;;;;12.15;7.60;;;7.60;99.90;;;;;;5029029;28;20021;-28
2022/11/16 07:02:09;;;;;;;9.82;6.25;;;7.60;99.90;;;;;;5027536;28;20034;-28
2022/11/16 07:04:35;;;;;;;11.02;7.20;;;7.60;99.90;;;;;;5030195;28;20029;-28
2022/11/16 07:07:00;;;;;;;11.77;7.30;;;7.60;99.90;;;;;;5026168;28;20044;-28
2022/11/16 07:09:26;;;;;;;12.48;7.93;;;7.60;99.90;;;;;;5025398;28;20029;-31
2022/11/16 07:11:51;;;;;;;14.93;8.02;;;7.60;99.90;;;;;;5023328;28;20465;-29
2022/11/16 07:14:17;;;;;;;10.30;7.00;;;7.70;99.90;;;;;;5026414;28;20099;-31
2022/11/16 07:16:43;;;;;;;11.07;7.35;;;7.70;99.90;;;;;;5027065;28;20505;-28
2022/11/16 07:19:09;;;;;;;12.50;7.47;;;7.70;99.90;;;;;;5023406;28;20482;-28
2022/11/16 07:21:35;;;;;;;14.18;7.55;;;7.70;99.90;;;;;;5027409;28;20033;-28
2022/11/16 07:24:01;;;;;;;13.48;7.10;;;7.80;99.90;;;;;;5024944;28;20139;-33
2022/11/16 07:26:29;;;;;;;12.43;7.18;;;7.70;99.90;;;;;;5026811;28;20083;-29
2022/11/16 07:28:57;;;;;;;13.45;7.75;;;7.80;99.90;;;;;;5027766;28;20512;-29
2022/11/16 07:31:22;;;;;;;11.25;6.22;;;7.80;99.90;;;;;;5025446;28;20045;-27
2022/11/16 07:33:48;;;;;;;11.32;7.15;;;7.80;99.90;;;;;;5025918;28;20532;-28
2022/11/16 07:36:15;;;;;;;11.00;7.50;;;7.80;99.90;;;;;;5025899;28;20095;-27
2022/11/16 07:38:41;;;;;;;12.35;7.63;;;7.80;99.90;;;;;;5027944;28;20021;-29
2022/11/16 07:41:13;;;;;;;14.32;7.93;;;7.90;99.90;;;;;;5023943;28;20444;-30
2022/11/16 07:43:41;;;;;;;21.05;8.02;;;7.90;99.90;;;;;;5022270;28;20026;-31
2022/11/16 07:46:09;;;;;;;18.15;7.57;;;8.00;99.90;;;;;;5027673;28;20037;-29
2022/11/16 07:48:34;;;;;;;14.13;8.52;;;8.00;99.90;;;;;;5026812;28;20041;-29
2022/11/16 07:51:01;;;;;;;15.00;7.72;;;8.10;99.90;;;;;;5026491;28;20032;-31
2022/11/16 07:53:27;;;;;;;14.10;7.90;;;8.20;99.90;;;;;;5023807;28;20120;-29
2022/11/16 07:55:53;;;;;;;11.75;7.15;;;8.20;99.90;;;;;;5026833;28;20124;-29
2022/11/16 07:58:20;;;;;;;14.52;7.13;;;8.30;99.90;;;;;;5027241;28;20069;-30
2022/11/16 08:00:46;;;;;;;14.05;8.52;;;8.30;99.90;;;;;;5026827;28;20108;-29
2022/11/16 08:03:11;;;;;;;14.30;7.43;;;8.30;99.90;;;;;;5026835;28;20124;-29
2022/11/16 08:05:37;;;;;;;15.93;9.18;;;8.40;99.90;;;;;;5025921;28;20029;-29
2022/11/16 08:08:03;;;;;;;12.10;7.78;;;8.40;99.90;;;;;;5026939;28;20037;-28
2022/11/16 08:10:30;;;;;;;14.50;7.90;;;8.50;99.90;;;;;;5025703;28;20026;-29
2022/11/16 08:12:56;;;;;;;9.38;5.70;;;8.50;99.90;;;;;;5026403;28;20026;-30
2022/11/16 08:15:22;;;;;;;12.05;7.65;;;8.60;99.90;;;;;;5027842;28;20033;-30
2022/11/16 08:17:47;;;;;;;10.50;7.22;;;8.60;99.90;;;;;;5025447;28;20037;-29
2022/11/16 08:20:13;;;;;;;8.32;5.43;;;8.70;99.90;;;;;;5023567;28;20405;-29
2022/11/16 08:22:39;;;;;;;11.75;7.15;;;8.80;99.90;;;;;;5024745;28;20506;-32
2022/11/16 08:25:05;;;;;;;8.80;5.18;;;8.80;99.90;;;;;;5026691;28;20025;-30
2022/11/16 08:27:31;;;;;;;10.68;6.13;;;8.80;99.90;;;;;;5030272;28;20444;-31
2022/11/16 08:29:57;;;;;;;11.52;6.93;;;8.90;99.90;;;;;;5027201;28;20040;-29
2022/11/16 08:32:23;;;;;;;10.73;7.05;;;8.90;99.90;;;;;;5024685;28;20034;-31
2022/11/16 08:34:48;;;;;;;9.63;6.22;;;8.90;99.90;;;;;;5022854;28;20517;-31
2022/11/16 08:37:14;;;;;;;10.68;6.78;;;9.00;99.90;;;;;;5025215;28;20109;-32
2022/11/16 08:39:40;;;;;;;10.18;7.07;;;9.00;99.90;;;;;;5026896;28;20026;-28
2022/11/16 08:42:05;;;;;;;6.88;4.95;;;9.00;99.90;;;;;;5024366;28;20448;-28
2022/11/16 08:44:31;;;;;;;9.15;5.72;;;9.10;99.90;;;;;;5025423;28;20025;-29
2022/11/16 08:46:56;;;;;;;8.45;5.85;;;9.10;99.90;;;;;;5025910;28;20465;-29
2022/11/16 08:49:22;;;;;;;11.65;7.28;;;9.10;99.90;;;;;;5026032;28;20483;-29
2022/11/16 08:51:48;;;;;;;9.95;6.60;;;9.10;99.90;;;;;;5024180;28;20084;-30
2022/11/16 08:54:14;;;;;;;11.25;6.60;;;9.10;99.90;;;;;;5026033;28;20116;-30
2022/11/16 08:56:40;;;;;;;11.60;6.90;;;9.10;99.90;;;;;;5024830;28;20096;-29
2022/11/16 08:59:05;;;;;;;10.48;6.38;;;9.10;99.90;;;;;;5027166;28;20356;-30
2022/11/16 09:01:31;;;;;;;11.63;6.72;;;9.10;99.90;;;;;;5030417;28;20029;-29
2022/11/16 09:03:58;;;;;;;11.23;7.10;;;9.10;99.90;;;;;;5028414;28;20505;-31
2022/11/16 09:06:25;;;;;;;10.18;7.38;;;9.20;99.90;;;;;;5031324;28;20037;-30
2022/11/16 09:08:51;;;;;;;12.18;7.32;;;9.20;99.90;;;;;;5030526;28;20410;-31
2022/11/16 09:11:20;;;;;;;15.05;7.72;;;9.20;99.90;;;;;;5030866;28;20048;-28
2022/11/16 09:13:47;;;;;;;12.65;6.53;;;9.20;99.90;;;;;;5029332;28;20024;-29
2022/11/16 09:16:15;;;;;;;11.48;6.68;;;9.20;99.90;;;;;;5026401;28;20598;-32
2022/11/16 09:18:41;;;;;;;11.03;7.27;;;9.20;99.90;;;;;;5031628;28;20022;-28
2022/11/16 09:21:07;;;;;;;13.75;7.20;;;9.20;99.90;;;;;;5030095;28;20060;-30
2022/11/16 09:23:33;;;;;;;10.70;6.50;;;9.30;99.90;;;;;;5030410;28;20049;-28
2022/11/16 09:26:04;;;;;;;13.18;6.70;;;9.30;99.90;;;;;;5030672;28;20034;-31
2022/11/16 09:28:30;;;;;;;10.88;6.43;;;9.30;99.90;;;;;;5025572;28;20025;-34
2022/11/16 09:31:00;;;;;;;10.40;6.97;;;9.30;99.90;;;;;;5029028;28;20399;-29
2022/11/16 09:33:27;;;;;;;10.70;6.57;;;9.40;99.90;;;;;;5029527;28;20425;-29
2022/11/16 09:35:53;;;;;;;10.35;6.78;;;9.40;99.90;;;;;;5029730;28;20060;-31
2022/11/16 09:38:19;;;;;;;11.70;7.00;;;9.40;99.90;;;;;;5025509;28;20056;-30
2022/11/16 09:40:45;;;;;;;12.50;6.85;;;9.40;99.90;;;;;;5027047;28;20032;-32
2022/11/16 09:43:32;;;;;;;7.90;6.38;;;9.50;99.90;;;;;;5026286;28;20087;-32
2022/11/16 09:46:13;;;;;;;12.55;6.78;;;9.50;99.90;;;;;;5024376;28;20663;-29
2022/11/16 09:48:39;;;;;;;10.93;5.88;;;9.60;99.90;;;;;;5027271;28;20557;-32
2022/11/16 09:51:08;;;;;;;11.70;6.70;;;9.60;99.90;;;;;;5021371;28;20079;-34
2022/11/16 09:53:59;;;;;;;11.55;6.05;;;9.60;99.90;;;;;;5028400;28;20113;-29
2022/11/16 09:56:27;;;;;;;10.77;6.28;;;9.70;99.90;;;;;;5029629;28;20021;-29
2022/11/16 09:59:10;;;;;;;11.20;6.45;;;9.70;99.90;;;;;;5028913;28;20025;-31
2022/11/16 10:01:51;;;;;;;7.97;5.38;;;9.80;99.90;;;;;;5027587;28;20038;-29
2022/11/16 10:04:42;;;;;;;7.25;5.40;;;9.90;99.90;;;;;;5027205;28;20393;-31
2022/11/16 10:07:27;;;;;;;7.22;4.90;;;10.00;99.90;;;;;;5027119;28;20063;-29
2022/11/16 10:09:55;;;;;;;9.73;5.45;;;10.10;99.90;;;;;;5026933;28;20136;-29
2022/11/16 10:12:36;;;;;;;8.30;4.70;;;10.20;99.90;;;;;;5028328;28;20033;-30
2022/11/16 10:15:27;;;;;;;3.60;3.15;;;10.40;99.90;;;;;;5029013;28;20037;-29
2022/11/16 10:18:14;;;;;;;7.72;4.82;;;10.40;99.90;;;;;;5027451;28;20025;-29
2022/11/16 10:20:59;;;;;;;6.07;5.00;;;10.60;99.90;;;;;;5028023;28;20474;-29
2022/11/16 10:23:51;;;;;;;7.25;3.88;;;10.70;99.90;;;;;;5029517;28;20497;-31
2022/11/16 10:26:30;;;;;;;7.43;4.82;;;10.80;99.90;;;;;;5025641;28;20026;-30
2022/11/16 10:29:12;;;;;;;6.25;3.75;;;10.80;99.90;;;;;;5026523;28;20026;-29
2022/11/16 10:31:50;;;;;;;6.90;4.07;;;10.80;99.90;;;;;;5027355;28;20033;-33
2022/11/16 10:34:24;;;;;;;5.80;4.10;;;10.90;99.90;;;;;;5026819;28;20022;-32
2022/11/16 10:36:51;;;;;;;3.10;2.83;;;10.90;99.90;;;;;;5025211;28;20021;-29
2022/11/16 10:39:19;;;;;;;7.32;4.75;;;10.90;99.90;;;;;;5027884;28;20483;-29
2022/11/16 10:41:49;;;;;;;6.05;3.80;;;10.90;99.90;;;;;;5028847;28;20171;-31
2022/11/16 10:44:34;;;;;;;4.30;3.15;;;10.90;99.90;;;;;;5024465;28;20042;-28
2022/11/16 10:47:04;;;;;;;5.65;4.07;;;11.00;99.90;;;;;;5028606;28;20033;-28
2022/11/16 10:49:38;;;;;;;4.53;3.28;;;11.10;99.90;;;;;;5026058;28;20071;-28
2022/11/16 10:52:04;;;;;;;3.65;2.88;;;11.20;99.90;;;;;;5028065;28;20057;-29
2022/11/16 10:54:31;;;;;;;3.75;2.78;;;11.30;99.90;;;;;;5027419;28;20053;-31
2022/11/16 10:57:05;;;;;;;4.75;3.50;;;11.50;99.90;;;;;;5028678;28;20021;-29
2022/11/16 10:59:42;;;;;;;7.30;2.80;;;11.40;99.90;;;;;;5026596;28;20017;-32
2022/11/16 11:02:30;;;;;;;5.25;3.00;;;11.50;99.90;;;;;;5027141;28;20451;-32
2022/11/16 11:05:22;;;;;;;2.08;1.90;;;11.60;99.90;;;;;;5023184;28;20029;-32
2022/11/16 11:08:03;;;;;;;1.95;1.27;;;11.60;99.90;;;;;;5024300;28;20041;-29
2022/11/16 11:10:35;;;;;;;1.88;1.67;;;11.70;99.90;;;;;;5025479;28;20061;-29
2022/11/16 11:13:10;;;;;;;2.95;2.47;;;11.60;99.90;;;;;;5027568;28;20375;-30
2022/11/16 11:15:36;;;;;;;2.17;1.95;;;11.50;99.90;;;;;;5024959;28;20096;-29
2022/11/16 11:18:14;;;;;;;2.95;1.83;;;11.50;99.90;;;;;;5025881;28;20489;-29
2022/11/16 11:20:42;;;;;;;2.67;2.23;;;11.40;99.90;;;;;;5019858;28;20029;-29
2022/11/16 11:23:20;;;;;;;1.90;1.70;;;11.40;99.90;;;;;;5022391;28;20053;-29
2022/11/16 11:25:49;;;;;;;2.80;2.08;;;11.40;99.90;;;;;;5025075;28;20060;-29
2022/11/16 11:28:20;;;;;;;5.22;2.55;;;11.40;99.90;;;;;;5026875;28;20029;-29
2022/11/16 11:31:10;;;;;;;3.33;2.63;;;11.30;99.90;;;;;;5026077;28;20498;-29
2022/11/16 11:34:00;;;;;;;3.47;2.10;;;11.40;99.90;;;;;;5022606;28;20433;-30
2022/11/16 11:36:32;;;;;;;2.75;2.03;;;11.40;99.90;;;;;;5013694;28;20112;-29
2022/11/16 11:39:02;;;;;;;2.17;1.90;;;11.40;99.90;;;;;;5025782;28;20032;-28
2022/11/16 11:41:36;;;;;;;2.25;2.00;;;11.50;99.90;;;;;;5024171;28;20389;-33
2022/11/16 11:44:03;;;;;;;2.35;2.10;;;11.50;99.90;;;;;;5025388;28;20160;-35
2022/11/16 11:46:33;;;;;;;3.15;2.58;;;11.50;99.90;;;;;;5025907;28;20034;-31
2022/11/16 11:49:24;;;;;;;2.10;1.77;;;11.60;99.90;;;;;;5025524;28;20057;-29
2022/11/16 11:51:51;;;;;;;2.72;1.48;;;11.60;99.90;;;;;;5021664;28;20030;-29
2022/11/16 11:54:41;;;;;;;2.78;2.20;;;11.70;99.90;;;;;;5025032;28;20105;-33
2022/11/16 11:57:14;;;;;;;2.70;2.08;;;11.80;99.90;;;;;;5027964;28;20074;-29
2022/11/16 11:59:40;;;;;;;2.80;1.90;;;12.00;99.90;;;;;;5027193;28;20508;-29
2022/11/16 12:02:24;;;;;;;4.03;1.88;;;12.00;99.90;;;;;;5024525;28;20037;-29
2022/11/16 12:05:06;;;;;;;2.97;1.98;;;12.00;99.90;;;;;;5025003;28;20450;-30
2022/11/16 12:07:40;;;;;;;3.30;1.80;;;11.90;99.90;;;;;;5023244;28;20029;-29
2022/11/16 12:10:50;;;;;;;2.42;1.48;;;12.00;99.90;;;;;;5024656;28;20058;-29
2022/11/16 12:13:24;;;;;;;1.75;1.65;;;12.10;99.90;;;;;;5025208;28;20045;-30
2022/11/16 12:16:25;;;;;;;5.57;2.35;;;12.20;99.90;;;;;;5016954;28;20410;-33
2022/11/16 12:18:53;;;;;;;5.07;1.90;;;12.40;99.90;;;;;;5011283;28;20037;-32
2022/11/16 12:21:59;;;;;;;1.77;1.58;;;12.30;99.90;;;;;;5028460;28;20406;-30
2022/11/16 12:24:50;;;;;;;3.15;2.10;;;12.20;99.90;;;;;;5023577;28;20445;-29
2022/11/16 12:27:36;;;;;;;2.95;1.83;;;12.10;99.90;;;;;;5024339;28;20049;-32
2022/11/16 12:30:06;;;;;;;1.60;1.50;;;12.10;99.90;;;;;;5022961;28;20069;-29
2022/11/16 12:32:51;;;;;;;2.13;1.67;;;12.00;99.90;;;;;;5021504;28;20128;-29
2022/11/16 12:35:37;;;;;;;2.00;1.58;;;12.00;99.90;;;;;;5032035;28;20494;-29
2022/11/16 12:38:15;;;;;;;1.40;1.30;;;11.90;99.90;;;;;;5030240;28;20470;-34
2022/11/16 12:41:04;;;;;;;3.75;1.60;;;11.90;99.90;;;;;;5028794;28;20151;-30
2022/11/16 12:43:48;;;;;;;2.55;1.50;;;12.00;99.90;;;;;;5030561;28;20053;-30
2022/11/16 12:46:54;;;;;;;2.85;2.42;;;12.00;99.90;;;;;;5032741;28;20140;-29
2022/11/16 12:49:47;;;;;;;2.55;1.92;;;12.00;99.90;;;;;;5030836;28;20100;-31
2022/11/16 12:52:26;;;;;;;2.80;2.15;;;12.00;99.90;;;;;;5028826;28;20033;-29
2022/11/16 12:55:11;;;;;;;2.20;2.00;;;11.90;99.90;;;;;;5029108;28;20037;-32
2022/11/16 12:57:55;;;;;;;2.40;2.20;;;12.00;99.90;;;;;;5028509;28;20029;-29
2022/11/16 13:00:21;;;;;;;2.55;2.15;;;11.90;99.90;;;;;;5030258;28;20421;-29
2022/11/16 13:03:06;;;;;;;3.13;2.20;;;11.60;99.90;;;;;;5030545;28;20041;-32
2022/11/16 13:05:41;;;;;;;2.38;1.98;;;11.50;99.90;;;;;;5030019;28;20261;-29
2022/11/16 13:08:14;;;;;;;2.85;2.10;;;11.30;99.90;;;;;;5032187;28;20029;-31
2022/11/16 13:10:44;;;;;;;3.67;1.70;;;11.30;99.90;;;;;;5032744;28;20033;-31
2022/11/16 13:13:15;;;;;;;4.80;2.08;;;11.30;99.90;;;;;;5032600;28;20116;-29
2022/11/16 13:15:45;;;;;;;1.73;1.63;;;11.30;99.90;;;;;;5028829;28;20045;-33
2022/11/16 13:18:14;;;;;;;2.10;1.85;;;11.20;99.90;;;;;;5028543;28;20494;-30
2022/11/16 13:21:02;;;;;;;2.67;1.85;;;11.20;99.90;;;;;;5031602;28;20033;-31
2022/11/16 13:23:31;;;;;;;2.38;1.80;;;11.20;99.90;;;;;;5032188;28;20049;-29
2022/11/16 13:26:34;;;;;;;2.50;2.05;;;11.30;99.90;;;;;;5029760;28;20029;-30
2022/11/16 13:29:27;;;;;;;2.05;1.90;;;11.30;99.90;;;;;;5029810;28;20103;-30
2022/11/16 13:31:59;;;;;;;3.20;1.95;;;11.30;99.90;;;;;;5030640;28;20124;-29
2022/11/16 13:34:29;;;;;;;1.95;1.85;;;11.40;99.90;;;;;;5028932;28;20422;-30
2022/11/16 13:36:54;;;;;;;2.72;1.98;;;11.30;99.90;;;;;;5030314;28;20084;-30
2022/11/16 13:40:03;;;;;;;2.33;2.10;;;11.30;99.90;;;;;;5034432;28;20432;-29
2022/11/16 13:42:52;;;;;;;3.25;2.10;;;11.30;99.90;;;;;;5025230;28;20069;-29
2022/11/16 13:45:21;;;;;;;1.98;1.85;;;11.30;99.90;;;;;;5029106;28;20037;-29
2022/11/16 13:47:55;;;;;;;2.25;2.05;;;11.30;99.90;;;;;;5027071;28;20367;-29
2022/11/16 13:50:28;;;;;;;3.10;2.20;;;11.30;99.90;;;;;;5027959;28;20115;-30
2022/11/16 13:53:10;;;;;;;2.20;2.00;;;11.30;99.90;;;;;;5029028;28;20029;-29
2022/11/16 13:55:45;;;;;;;2.10;1.90;;;11.20;99.90;;;;;;5028900;28;20061;-31
2022/11/16 13:58:19;;;;;;;2.17;2.00;;;11.10;99.90;;;;;;5025091;28;20059;-30
2022/11/16 14:00:57;;;;;;;2.58;2.38;;;11.00;99.90;;;;;;5020404;28;20021;-29